sensor_id;sensor_type;location;lat;lon;timestamp;temperature;humidity
1950;DHT22;975;48.760;9.152;2023-04-24T08:05:50;21.00;75.70
1950;DHT22;975;48.760;9.152;2023-04-24T08:08:21;14.10;97.10
1950;DHT22;975;48.760;9.152;2023-04-24T08:10:52;13.90;95.80
1950;DHT22;975;48.760;9.152;2023-04-24T08:13:20;14.10;96.00
1950;DHT22;975;48.760;9.152;2023-04-24T08:15:48;14.00;95.00
1950;DHT22;975;48.760;9.152;2023-04-24T08:18:15;13.80;96.10
1950;DHT22;975;48.760;9.152;2023-04-24T08:20:48;13.60;95.60
1950;DHT22;975;48.760;9.152;2023-04-24T08:23:16;13.70;95.70
1950;DHT22;975;48.760;9.152;2023-04-24T08:25:45;13.50;95.20
1950;DHT22;975;48.760;9.152;2023-04-24T08:28:12;13.60;95.70
1950;DHT22;975;48.760;9.152;2023-04-24T08:30:46;13.60;96.00
1950;DHT22;975;48.760;9.152;2023-04-24T08:33:17;13.80;95.50
1950;DHT22;975;48.760;9.152;2023-04-24T08:35:45;14.10;95.70
1950;DHT22;975;48.760;9.152;2023-04-24T08:45:41;14.40;93.70
1950;DHT22;975;48.760;9.152;2023-04-24T08:48:09;14.60;92.50
1950;DHT22;975;48.760;9.152;2023-04-24T08:50:37;14.40;93.20
1950;DHT22;975;48.760;9.152;2023-04-24T08:53:07;14.20;93.90
1950;DHT22;975;48.760;9.152;2023-04-24T08:55:41;13.90;94.00
1950;DHT22;975;48.760;9.152;2023-04-24T08:58:11;13.90;95.70
1950;DHT22;975;48.760;9.152;2023-04-24T09:00:40;14.20;95.20
1950;DHT22;975;48.760;9.152;2023-04-24T09:03:14;14.60;94.70
1950;DHT22;975;48.760;9.152;2023-04-24T09:05:48;14.50;93.20
1950;DHT22;975;48.760;9.152;2023-04-24T09:08:18;14.40;94.90
1950;DHT22;975;48.760;9.152;2023-04-24T09:10:46;14.50;94.90
1950;DHT22;975;48.760;9.152;2023-04-24T09:13:15;14.60;93.90
1950;DHT22;975;48.760;9.152;2023-04-24T09:15:43;14.30;94.60
1950;DHT22;975;48.760;9.152;2023-04-24T09:18:11;13.70;94.40
1950;DHT22;975;48.760;9.152;2023-04-24T09:20:56;13.60;94.70
1950;DHT22;975;48.760;9.152;2023-04-24T09:23:26;13.40;95.70
1950;DHT22;975;48.760;9.152;2023-04-24T09:31:07;13.30;96.60
1950;DHT22;975;48.760;9.152;2023-04-24T09:33:34;12.50;99.00
1950;DHT22;975;48.760;9.152;2023-04-24T09:36:02;12.30;99.10
1950;DHT22;975;48.760;9.152;2023-04-24T09:38:34;12.40;98.10
1950;DHT22;975;48.760;9.152;2023-04-24T09:43:33;12.60;98.50
1950;DHT22;975;48.760;9.152;2023-04-24T09:46:06;13.10;98.40
1950;DHT22;975;48.760;9.152;2023-04-24T09:48:36;13.60;96.10
1950;DHT22;975;48.760;9.152;2023-04-24T09:51:07;13.90;95.80
1950;DHT22;975;48.760;9.152;2023-04-24T09:53:37;14.00;94.60
1950;DHT22;975;48.760;9.152;2023-04-24T09:56:08;14.10;94.30
1950;DHT22;975;48.760;9.152;2023-04-24T15:44:59;13.90;94.60
1950;DHT22;975;48.760;9.152;2023-04-24T15:47:27;12.40;99.90
1950;DHT22;975;48.760;9.152;2023-04-24T15:49:54;12.30;99.90
1950;DHT22;975;48.760;9.152;2023-04-24T15:52:21;12.30;99.90
1950;DHT22;975;48.760;9.152;2023-04-24T15:54:49;12.30;99.90
1950;DHT22;975;48.760;9.152;2023-04-24T15:57:16;12.40;99.90
1950;DHT22;975;48.760;9.152;2023-04-24T15:59:44;12.40;99.90
1950;DHT22;975;48.760;9.152;2023-04-24T16:02:14;12.30;99.90
1950;DHT22;975;48.760;9.152;2023-04-24T16:04:44;12.40;99.90
1950;DHT22;975;48.760;9.152;2023-04-24T16:07:16;12.50;99.90
1950;DHT22;975;48.760;9.152;2023-04-24T16:22:08;12.60;99.90
1950;DHT22;975;48.760;9.152;2023-04-24T16:24:36;12.70;99.90
1950;DHT22;975;48.760;9.152;2023-04-24T16:27:04;12.60;99.90
1950;DHT22;975;48.760;9.152;2023-04-24T16:29:32;12.40;99.90
1950;DHT22;975;48.760;9.152;2023-04-24T16:32:00;12.40;99.90
1950;DHT22;975;48.760;9.152;2023-04-24T16:34:27;12.30;99.90
1950;DHT22;975;48.760;9.152;2023-04-24T16:36:56;12.40;99.90
1950;DHT22;975;48.760;9.152;2023-04-24T16:39:24;12.50;99.90
1950;DHT22;975;48.760;9.152;2023-04-24T16:41:52;12.60;99.90
1950;DHT22;975;48.760;9.152;2023-04-24T16:44:20;12.70;99.90
1950;DHT22;975;48.760;9.152;2023-04-24T16:46:47;12.80;99.90
1950;DHT22;975;48.760;9.152;2023-04-24T16:49:15;12.80;99.90
1950;DHT22;975;48.760;9.152;2023-04-24T21:29:00;12.80;99.90
